Terminal Aerodrome Forecast
Issued by NWS

Home | Current Version | Previous Version | Text Only | Print | Product List | Glossary On
Versions: 1 2 3 4 5 6 7 8 9 10 11 12 13 14 15
000
FTUS46 KOTX 302005 AAA
TAFCOE
TAF AMD
KCOE 302005Z 3020/0118 26010G20KT P6SM BKN060
     FM010300 22006KT P6SM SCT060
     FM010900 18005KT P6SM SKC
     FM011500 18011KT P6SM OVC100=

USA.gov is the U.S. government's official web portal to all federal, state and local government web resources and services.